sensor_id;sensor_type;location;lat;lon;timestamp;P1;durP1;ratioP1;P2;durP2;ratioP2
74967;SDS011;63523;51.880;12.630;2023-12-20T00:01:37;10.17;;;3.23;;
74967;SDS011;63523;51.880;12.630;2023-12-20T00:04:03;8.90;;;3.00;;
74967;SDS011;63523;51.880;12.630;2023-12-20T00:06:29;8.53;;;2.63;;
74967;SDS011;63523;51.880;12.630;2023-12-20T00:08:54;8.65;;;2.42;;
74967;SDS011;63523;51.880;12.630;2023-12-20T00:11:20;9.33;;;2.97;;
74967;SDS011;63523;51.880;12.630;2023-12-20T00:13:45;9.40;;;2.80;;
74967;SDS011;63523;51.880;12.630;2023-12-20T00:16:10;8.13;;;2.70;;
74967;SDS011;63523;51.880;12.630;2023-12-20T00:18:36;8.98;;;2.97;;
74967;SDS011;63523;51.880;12.630;2023-12-20T00:21:01;7.97;;;2.27;;
74967;SDS011;63523;51.880;12.630;2023-12-20T00:23:27;8.23;;;2.60;;
74967;SDS011;63523;51.880;12.630;2023-12-20T00:25:52;11.03;;;2.73;;
74967;SDS011;63523;51.880;12.630;2023-12-20T00:28:17;9.73;;;2.70;;
74967;SDS011;63523;51.880;12.630;2023-12-20T00:30:43;9.43;;;2.67;;
74967;SDS011;63523;51.880;12.630;2023-12-20T00:33:08;9.25;;;2.45;;
74967;SDS011;63523;51.880;12.630;2023-12-20T00:35:34;11.43;;;3.33;;
74967;SDS011;63523;51.880;12.630;2023-12-20T00:37:59;9.97;;;2.87;;
74967;SDS011;63523;51.880;12.630;2023-12-20T00:40:24;8.73;;;2.43;;
74967;SDS011;63523;51.880;12.630;2023-12-20T00:42:50;8.30;;;2.50;;
74967;SDS011;63523;51.880;12.630;2023-12-20T00:45:15;8.57;;;2.58;;
74967;SDS011;63523;51.880;12.630;2023-12-20T00:47:40;7.53;;;2.53;;
74967;SDS011;63523;51.880;12.630;2023-12-20T00:50:06;7.20;;;2.17;;
74967;SDS011;63523;51.880;12.630;2023-12-20T00:52:32;9.20;;;2.75;;
74967;SDS011;63523;51.880;12.630;2023-12-20T00:54:57;8.13;;;2.40;;
74967;SDS011;63523;51.880;12.630;2023-12-20T00:57:23;8.30;;;2.17;;
74967;SDS011;63523;51.880;12.630;2023-12-20T00:59:48;9.70;;;2.60;;
74967;SDS011;63523;51.880;12.630;2023-12-20T01:02:13;9.67;;;2.83;;
74967;SDS011;63523;51.880;12.630;2023-12-20T01:04:39;8.30;;;2.37;;
74967;SDS011;63523;51.880;12.630;2023-12-20T01:07:04;8.23;;;2.90;;
74967;SDS011;63523;51.880;12.630;2023-12-20T01:09:30;9.27;;;2.80;;
74967;SDS011;63523;51.880;12.630;2023-12-20T01:11:55;8.93;;;2.37;;
74967;SDS011;63523;51.880;12.630;2023-12-20T01:14:20;8.73;;;2.63;;
74967;SDS011;63523;51.880;12.630;2023-12-20T01:16:46;8.23;;;2.33;;
74967;SDS011;63523;51.880;12.630;2023-12-20T01:19:12;6.88;;;2.35;;
74967;SDS011;63523;51.880;12.630;2023-12-20T01:21:39;7.55;;;2.10;;
74967;SDS011;63523;51.880;12.630;2023-12-20T01:24:04;6.55;;;1.83;;
74967;SDS011;63523;51.880;12.630;2023-12-20T01:26:29;7.03;;;1.80;;
74967;SDS011;63523;51.880;12.630;2023-12-20T01:28:55;7.27;;;2.10;;
74967;SDS011;63523;51.880;12.630;2023-12-20T01:31:20;6.67;;;1.97;;
74967;SDS011;63523;51.880;12.630;2023-12-20T01:33:45;8.40;;;2.43;;
74967;SDS011;63523;51.880;12.630;2023-12-20T01:36:11;7.93;;;1.97;;
74967;SDS011;63523;51.880;12.630;2023-12-20T01:38:37;8.25;;;2.40;;
74967;SDS011;63523;51.880;12.630;2023-12-20T01:41:02;9.57;;;2.70;;
74967;SDS011;63523;51.880;12.630;2023-12-20T01:43:29;8.02;;;2.13;;
74967;SDS011;63523;51.880;12.630;2023-12-20T01:45:55;9.77;;;2.50;;
74967;SDS011;63523;51.880;12.630;2023-12-20T01:48:21;8.75;;;2.60;;
74967;SDS011;63523;51.880;12.630;2023-12-20T01:50:47;9.60;;;2.47;;
74967;SDS011;63523;51.880;12.630;2023-12-20T01:53:13;7.75;;;2.28;;
74967;SDS011;63523;51.880;12.630;2023-12-20T01:55:40;7.82;;;2.08;;
74967;SDS011;63523;51.880;12.630;2023-12-20T01:58:07;7.70;;;2.53;;
74967;SDS011;63523;51.880;12.630;2023-12-20T02:00:33;7.93;;;2.40;;
74967;SDS011;63523;51.880;12.630;2023-12-20T02:03:03;8.35;;;2.42;;
74967;SDS011;63523;51.880;12.630;2023-12-20T02:05:32;7.50;;;2.00;;
74967;SDS011;63523;51.880;12.630;2023-12-20T02:08:00;7.93;;;2.25;;
74967;SDS011;63523;51.880;12.630;2023-12-20T02:10:25;9.63;;;2.80;;
74967;SDS011;63523;51.880;12.630;2023-12-20T02:12:51;7.20;;;2.20;;
74967;SDS011;63523;51.880;12.630;2023-12-20T02:15:17;8.27;;;2.20;;
74967;SDS011;63523;51.880;12.630;2023-12-20T02:17:42;8.85;;;2.35;;
74967;SDS011;63523;51.880;12.630;2023-12-20T02:20:09;7.60;;;2.30;;
74967;SDS011;63523;51.880;12.630;2023-12-20T02:22:34;7.90;;;1.97;;
74967;SDS011;63523;51.880;12.630;2023-12-20T02:25:00;8.03;;;2.10;;
74967;SDS011;63523;51.880;12.630;2023-12-20T02:27:25;6.87;;;2.00;;
74967;SDS011;63523;51.880;12.630;2023-12-20T02:29:51;7.55;;;2.05;;
74967;SDS011;63523;51.880;12.630;2023-12-20T02:32:17;8.17;;;2.20;;
74967;SDS011;63523;51.880;12.630;2023-12-20T02:34:42;7.53;;;2.28;;
74967;SDS011;63523;51.880;12.630;2023-12-20T02:37:08;8.40;;;2.30;;
74967;SDS011;63523;51.880;12.630;2023-12-20T02:39:33;8.10;;;2.30;;
74967;SDS011;63523;51.880;12.630;2023-12-20T02:41:58;8.20;;;2.17;;
74967;SDS011;63523;51.880;12.630;2023-12-20T02:44:24;7.37;;;2.77;;
74967;SDS011;63523;51.880;12.630;2023-12-20T02:46:49;8.90;;;2.78;;
74967;SDS011;63523;51.880;12.630;2023-12-20T02:49:15;8.00;;;2.50;;
74967;SDS011;63523;51.880;12.630;2023-12-20T02:51:40;7.60;;;2.30;;
74967;SDS011;63523;51.880;12.630;2023-12-20T02:54:05;8.23;;;2.37;;
74967;SDS011;63523;51.880;12.630;2023-12-20T02:56:32;7.40;;;2.23;;
74967;SDS011;63523;51.880;12.630;2023-12-20T02:58:57;8.90;;;2.20;;
74967;SDS011;63523;51.880;12.630;2023-12-20T03:01:23;8.70;;;2.40;;
74967;SDS011;63523;51.880;12.630;2023-12-20T03:03:48;7.33;;;2.00;;
74967;SDS011;63523;51.880;12.630;2023-12-20T03:06:17;7.57;;;2.10;;
74967;SDS011;63523;51.880;12.630;2023-12-20T03:08:43;8.70;;;2.60;;
74967;SDS011;63523;51.880;12.630;2023-12-20T03:11:09;8.43;;;2.30;;
74967;SDS011;63523;51.880;12.630;2023-12-20T03:13:34;7.00;;;2.40;;
74967;SDS011;63523;51.880;12.630;2023-12-20T03:15:59;7.10;;;2.40;;
74967;SDS011;63523;51.880;12.630;2023-12-20T03:18:24;6.50;;;2.07;;
74967;SDS011;63523;51.880;12.630;2023-12-20T03:20:50;7.23;;;2.27;;
74967;SDS011;63523;51.880;12.630;2023-12-20T03:23:15;11.43;;;3.27;;
74967;SDS011;63523;51.880;12.630;2023-12-20T03:25:41;31.25;;;8.00;;
74967;SDS011;63523;51.880;12.630;2023-12-20T03:28:06;30.40;;;7.70;;
74967;SDS011;63523;51.880;12.630;2023-12-20T03:30:32;41.50;;;11.07;;
74967;SDS011;63523;51.880;12.630;2023-12-20T03:32:57;47.83;;;16.17;;
74967;SDS011;63523;51.880;12.630;2023-12-20T03:35:22;37.13;;;13.23;;
74967;SDS011;63523;51.880;12.630;2023-12-20T03:37:48;14.83;;;5.33;;
74967;SDS011;63523;51.880;12.630;2023-12-20T03:40:13;7.80;;;2.60;;
74967;SDS011;63523;51.880;12.630;2023-12-20T03:42:38;7.63;;;2.40;;
74967;SDS011;63523;51.880;12.630;2023-12-20T03:45:04;6.40;;;2.10;;
74967;SDS011;63523;51.880;12.630;2023-12-20T03:47:29;6.70;;;1.97;;
74967;SDS011;63523;51.880;12.630;2023-12-20T03:49:55;7.03;;;2.00;;
74967;SDS011;63523;51.880;12.630;2023-12-20T03:52:20;6.85;;;2.10;;
74967;SDS011;63523;51.880;12.630;2023-12-20T03:54:45;6.93;;;2.37;;
74967;SDS011;63523;51.880;12.630;2023-12-20T03:57:11;7.20;;;1.93;;
74967;SDS011;63523;51.880;12.630;2023-12-20T03:59:36;6.50;;;2.07;;
74967;SDS011;63523;51.880;12.630;2023-12-20T04:02:02;6.97;;;2.53;;
74967;SDS011;63523;51.880;12.630;2023-12-20T04:04:28;19.10;;;5.47;;
74967;SDS011;63523;51.880;12.630;2023-12-20T04:06:53;18.40;;;6.93;;
74967;SDS011;63523;51.880;12.630;2023-12-20T04:09:19;19.87;;;7.70;;
74967;SDS011;63523;51.880;12.630;2023-12-20T04:11:44;29.63;;;9.80;;
74967;SDS011;63523;51.880;12.630;2023-12-20T04:14:10;18.10;;;5.57;;
74967;SDS011;63523;51.880;12.630;2023-12-20T04:16:35;21.40;;;6.73;;
74967;SDS011;63523;51.880;12.630;2023-12-20T04:19:00;24.95;;;7.85;;
74967;SDS011;63523;51.880;12.630;2023-12-20T04:21:26;24.60;;;8.77;;
74967;SDS011;63523;51.880;12.630;2023-12-20T04:23:51;17.47;;;5.43;;
74967;SDS011;63523;51.880;12.630;2023-12-20T04:26:16;17.60;;;5.63;;
74967;SDS011;63523;51.880;12.630;2023-12-20T04:28:42;30.37;;;9.73;;
74967;SDS011;63523;51.880;12.630;2023-12-20T04:31:07;24.23;;;8.10;;
74967;SDS011;63523;51.880;12.630;2023-12-20T04:33:33;13.53;;;3.90;;
74967;SDS011;63523;51.880;12.630;2023-12-20T04:35:58;7.87;;;2.37;;
74967;SDS011;63523;51.880;12.630;2023-12-20T04:38:25;8.57;;;2.00;;
74967;SDS011;63523;51.880;12.630;2023-12-20T04:40:50;4.40;;;1.40;;
74967;SDS011;63523;51.880;12.630;2023-12-20T04:43:15;4.70;;;1.07;;
74967;SDS011;63523;51.880;12.630;2023-12-20T04:45:41;6.07;;;0.97;;
74967;SDS011;63523;51.880;12.630;2023-12-20T04:48:06;5.20;;;0.90;;
74967;SDS011;63523;51.880;12.630;2023-12-20T04:53:16;3.63;;;0.67;;
74967;SDS011;63523;51.880;12.630;2023-12-20T04:55:41;3.00;;;0.52;;
74967;SDS011;63523;51.880;12.630;2023-12-20T04:58:07;6.17;;;0.77;;
74967;SDS011;63523;51.880;12.630;2023-12-20T05:06:49;4.68;;;0.60;;
74967;SDS011;63523;51.880;12.630;2023-12-20T05:09:41;5.80;;;0.60;;
74967;SDS011;63523;51.880;12.630;2023-12-20T05:12:09;4.40;;;0.53;;
74967;SDS011;63523;51.880;12.630;2023-12-20T05:14:34;3.47;;;0.40;;
74967;SDS011;63523;51.880;12.630;2023-12-20T05:17:06;2.97;;;0.30;;
74967;SDS011;63523;51.880;12.630;2023-12-20T05:19:42;4.15;;;0.30;;
74967;SDS011;63523;51.880;12.630;2023-12-20T05:22:28;12.93;;;4.13;;
74967;SDS011;63523;51.880;12.630;2023-12-20T05:24:53;18.47;;;4.43;;
74967;SDS011;63523;51.880;12.630;2023-12-20T05:27:19;30.07;;;7.53;;
74967;SDS011;63523;51.880;12.630;2023-12-20T05:29:44;30.15;;;7.93;;
74967;SDS011;63523;51.880;12.630;2023-12-20T05:32:10;23.90;;;6.20;;
74967;SDS011;63523;51.880;12.630;2023-12-20T05:34:35;20.20;;;6.07;;
74967;SDS011;63523;51.880;12.630;2023-12-20T05:37:00;28.57;;;8.60;;
74967;SDS011;63523;51.880;12.630;2023-12-20T05:39:26;20.98;;;6.32;;
74967;SDS011;63523;51.880;12.630;2023-12-20T05:41:52;20.47;;;6.40;;
74967;SDS011;63523;51.880;12.630;2023-12-20T05:44:17;21.50;;;6.60;;
74967;SDS011;63523;51.880;12.630;2023-12-20T05:46:42;32.03;;;9.00;;
74967;SDS011;63523;51.880;12.630;2023-12-20T05:49:08;30.07;;;9.83;;
74967;SDS011;63523;51.880;12.630;2023-12-20T05:51:33;33.47;;;9.87;;
74967;SDS011;63523;51.880;12.630;2023-12-20T05:53:58;30.70;;;7.93;;
74967;SDS011;63523;51.880;12.630;2023-12-20T05:56:24;16.23;;;4.43;;
74967;SDS011;63523;51.880;12.630;2023-12-20T05:58:49;11.43;;;2.37;;
74967;SDS011;63523;51.880;12.630;2023-12-20T06:01:14;6.10;;;1.50;;
74967;SDS011;63523;51.880;12.630;2023-12-20T06:03:42;5.70;;;1.17;;
74967;SDS011;63523;51.880;12.630;2023-12-20T06:06:07;4.23;;;0.77;;
74967;SDS011;63523;51.880;12.630;2023-12-20T06:08:33;5.15;;;1.00;;
74967;SDS011;63523;51.880;12.630;2023-12-20T06:10:59;8.67;;;1.30;;
74967;SDS011;63523;51.880;12.630;2023-12-20T06:13:24;5.47;;;1.10;;
74967;SDS011;63523;51.880;12.630;2023-12-20T06:15:49;5.63;;;1.20;;
74967;SDS011;63523;51.880;12.630;2023-12-20T06:18:14;6.53;;;0.90;;
74967;SDS011;63523;51.880;12.630;2023-12-20T06:20:40;5.70;;;1.07;;
74967;SDS011;63523;51.880;12.630;2023-12-20T06:23:05;4.50;;;1.10;;
74967;SDS011;63523;51.880;12.630;2023-12-20T06:25:30;5.23;;;1.23;;
74967;SDS011;63523;51.880;12.630;2023-12-20T06:27:55;6.17;;;1.10;;
74967;SDS011;63523;51.880;12.630;2023-12-20T06:30:21;5.93;;;1.20;;
74967;SDS011;63523;51.880;12.630;2023-12-20T06:32:46;5.03;;;1.30;;
74967;SDS011;63523;51.880;12.630;2023-12-20T06:35:12;5.80;;;1.03;;
74967;SDS011;63523;51.880;12.630;2023-12-20T06:37:38;6.77;;;1.30;;
74967;SDS011;63523;51.880;12.630;2023-12-20T06:40:07;6.97;;;1.10;;
74967;SDS011;63523;51.880;12.630;2023-12-20T06:42:33;5.20;;;1.08;;
74967;SDS011;63523;51.880;12.630;2023-12-20T06:44:58;6.90;;;1.47;;
74967;SDS011;63523;51.880;12.630;2023-12-20T06:47:23;5.73;;;1.10;;
74967;SDS011;63523;51.880;12.630;2023-12-20T06:49:49;5.40;;;1.30;;
74967;SDS011;63523;51.880;12.630;2023-12-20T06:52:14;7.27;;;1.03;;
74967;SDS011;63523;51.880;12.630;2023-12-20T06:54:39;8.30;;;1.70;;
74967;SDS011;63523;51.880;12.630;2023-12-20T06:57:05;7.97;;;1.40;;
74967;SDS011;63523;51.880;12.630;2023-12-20T06:59:30;7.40;;;1.10;;
74967;SDS011;63523;51.880;12.630;2023-12-20T07:01:55;6.63;;;1.07;;
74967;SDS011;63523;51.880;12.630;2023-12-20T07:04:20;5.87;;;1.40;;
74967;SDS011;63523;51.880;12.630;2023-12-20T07:06:49;6.78;;;1.35;;
74967;SDS011;63523;51.880;12.630;2023-12-20T07:09:21;7.37;;;1.20;;
74967;SDS011;63523;51.880;12.630;2023-12-20T07:11:47;6.10;;;1.20;;
74967;SDS011;63523;51.880;12.630;2023-12-20T07:14:12;7.13;;;0.90;;
74967;SDS011;63523;51.880;12.630;2023-12-20T07:16:38;14.90;;;1.43;;
74967;SDS011;63523;51.880;12.630;2023-12-20T07:19:03;7.60;;;1.10;;
74967;SDS011;63523;51.880;12.630;2023-12-20T07:21:28;5.90;;;0.90;;
74967;SDS011;63523;51.880;12.630;2023-12-20T07:23:54;6.43;;;1.10;;
74967;SDS011;63523;51.880;12.630;2023-12-20T07:26:19;7.80;;;1.10;;
74967;SDS011;63523;51.880;12.630;2023-12-20T07:28:44;7.83;;;0.87;;
74967;SDS011;63523;51.880;12.630;2023-12-20T07:31:09;8.87;;;1.43;;
74967;SDS011;63523;51.880;12.630;2023-12-20T07:33:35;5.07;;;1.10;;
74967;SDS011;63523;51.880;12.630;2023-12-20T07:36:00;6.40;;;1.10;;
74967;SDS011;63523;51.880;12.630;2023-12-20T07:38:26;5.33;;;1.03;;
74967;SDS011;63523;51.880;12.630;2023-12-20T07:40:51;6.63;;;1.13;;
74967;SDS011;63523;51.880;12.630;2023-12-20T07:43:16;10.07;;;1.45;;
74967;SDS011;63523;51.880;12.630;2023-12-20T07:45:41;4.93;;;0.87;;
74967;SDS011;63523;51.880;12.630;2023-12-20T07:48:07;6.37;;;1.00;;
74967;SDS011;63523;51.880;12.630;2023-12-20T07:50:33;7.35;;;1.30;;
74967;SDS011;63523;51.880;12.630;2023-12-20T07:52:58;6.70;;;1.40;;
74967;SDS011;63523;51.880;12.630;2023-12-20T07:55:25;6.47;;;1.30;;
74967;SDS011;63523;51.880;12.630;2023-12-20T07:57:51;11.10;;;1.40;;
74967;SDS011;63523;51.880;12.630;2023-12-20T08:00:16;6.60;;;1.00;;
74967;SDS011;63523;51.880;12.630;2023-12-20T08:02:42;6.60;;;1.07;;
74967;SDS011;63523;51.880;12.630;2023-12-20T08:05:07;6.57;;;0.90;;
74967;SDS011;63523;51.880;12.630;2023-12-20T08:07:32;5.80;;;0.93;;
74967;SDS011;63523;51.880;12.630;2023-12-20T08:09:58;8.02;;;0.60;;
74967;SDS011;63523;51.880;12.630;2023-12-20T08:12:23;7.27;;;0.57;;
74967;SDS011;63523;51.880;12.630;2023-12-20T08:14:50;4.40;;;0.52;;
74967;SDS011;63523;51.880;12.630;2023-12-20T08:17:16;4.67;;;0.50;;
74967;SDS011;63523;51.880;12.630;2023-12-20T08:19:43;3.83;;;0.30;;
74967;SDS011;63523;51.880;12.630;2023-12-20T08:22:08;2.80;;;0.30;;
74967;SDS011;63523;51.880;12.630;2023-12-20T08:24:33;4.20;;;0.30;;
74967;SDS011;63523;51.880;12.630;2023-12-20T08:26:59;5.70;;;0.30;;
74967;SDS011;63523;51.880;12.630;2023-12-20T08:29:24;2.60;;;0.20;;
74967;SDS011;63523;51.880;12.630;2023-12-20T08:31:52;4.00;;;0.40;;
74967;SDS011;63523;51.880;12.630;2023-12-20T08:34:19;3.35;;;0.32;;
74967;SDS011;63523;51.880;12.630;2023-12-20T08:36:44;5.10;;;0.40;;
74967;SDS011;63523;51.880;12.630;2023-12-20T08:39:09;5.67;;;0.50;;
74967;SDS011;63523;51.880;12.630;2023-12-20T08:41:35;3.83;;;0.30;;
74967;SDS011;63523;51.880;12.630;2023-12-20T08:44:01;2.95;;;0.40;;
74967;SDS011;63523;51.880;12.630;2023-12-20T08:46:27;3.50;;;0.30;;
74967;SDS011;63523;51.880;12.630;2023-12-20T08:48:52;7.80;;;0.63;;
74967;SDS011;63523;51.880;12.630;2023-12-20T08:51:17;6.53;;;0.67;;
74967;SDS011;63523;51.880;12.630;2023-12-20T08:53:43;3.72;;;0.40;;
74967;SDS011;63523;51.880;12.630;2023-12-20T08:56:10;6.20;;;0.80;;
74967;SDS011;63523;51.880;12.630;2023-12-20T08:58:35;5.43;;;0.70;;
74967;SDS011;63523;51.880;12.630;2023-12-20T09:01:01;5.20;;;0.60;;
74967;SDS011;63523;51.880;12.630;2023-12-20T09:03:26;5.57;;;0.60;;
74967;SDS011;63523;51.880;12.630;2023-12-20T09:05:52;5.43;;;0.80;;
74967;SDS011;63523;51.880;12.630;2023-12-20T09:08:17;7.47;;;0.67;;
74967;SDS011;63523;51.880;12.630;2023-12-20T09:10:42;6.77;;;0.80;;
74967;SDS011;63523;51.880;12.630;2023-12-20T09:13:09;5.53;;;0.80;;
74967;SDS011;63523;51.880;12.630;2023-12-20T09:15:34;7.07;;;0.83;;
74967;SDS011;63523;51.880;12.630;2023-12-20T09:18:00;6.17;;;1.10;;
74967;SDS011;63523;51.880;12.630;2023-12-20T09:20:25;11.50;;;0.80;;
74967;SDS011;63523;51.880;12.630;2023-12-20T09:22:52;6.17;;;0.73;;
74967;SDS011;63523;51.880;12.630;2023-12-20T09:25:17;5.20;;;0.73;;
74967;SDS011;63523;51.880;12.630;2023-12-20T09:27:43;6.88;;;1.08;;
74967;SDS011;63523;51.880;12.630;2023-12-20T09:30:08;13.13;;;0.90;;
74967;SDS011;63523;51.880;12.630;2023-12-20T09:32:34;6.83;;;0.80;;
74967;SDS011;63523;51.880;12.630;2023-12-20T09:34:59;7.83;;;0.77;;
74967;SDS011;63523;51.880;12.630;2023-12-20T09:37:26;6.67;;;0.87;;
74967;SDS011;63523;51.880;12.630;2023-12-20T09:39:52;7.70;;;0.90;;
74967;SDS011;63523;51.880;12.630;2023-12-20T09:42:19;6.27;;;0.80;;
74967;SDS011;63523;51.880;12.630;2023-12-20T09:44:50;6.00;;;0.75;;
74967;SDS011;63523;51.880;12.630;2023-12-20T09:47:15;7.50;;;0.97;;
74967;SDS011;63523;51.880;12.630;2023-12-20T09:49:44;5.68;;;1.08;;
74967;SDS011;63523;51.880;12.630;2023-12-20T09:52:10;7.68;;;1.23;;
74967;SDS011;63523;51.880;12.630;2023-12-20T09:54:37;8.20;;;0.90;;
74967;SDS011;63523;51.880;12.630;2023-12-20T09:57:03;8.40;;;0.80;;
74967;SDS011;63523;51.880;12.630;2023-12-20T09:59:29;11.77;;;1.20;;
74967;SDS011;63523;51.880;12.630;2023-12-20T10:01:55;7.53;;;1.07;;
74967;SDS011;63523;51.880;12.630;2023-12-20T10:04:21;6.43;;;0.90;;
74967;SDS011;63523;51.880;12.630;2023-12-20T10:06:47;8.90;;;0.90;;
74967;SDS011;63523;51.880;12.630;2023-12-20T10:09:13;8.73;;;0.83;;
74967;SDS011;63523;51.880;12.630;2023-12-20T10:11:38;5.90;;;0.80;;
74967;SDS011;63523;51.880;12.630;2023-12-20T10:14:04;3.67;;;0.50;;
74967;SDS011;63523;51.880;12.630;2023-12-20T10:16:33;5.53;;;0.73;;
74967;SDS011;63523;51.880;12.630;2023-12-20T10:18:59;7.18;;;0.60;;
74967;SDS011;63523;51.880;12.630;2023-12-20T10:21:24;4.40;;;0.80;;
74967;SDS011;63523;51.880;12.630;2023-12-20T10:23:51;7.70;;;0.73;;
74967;SDS011;63523;51.880;12.630;2023-12-20T10:26:21;3.65;;;0.60;;
74967;SDS011;63523;51.880;12.630;2023-12-20T10:28:54;8.48;;;0.50;;
74967;SDS011;63523;51.880;12.630;2023-12-20T10:33:53;6.78;;;1.40;;
74967;SDS011;63523;51.880;12.630;2023-12-20T10:36:20;7.60;;;0.80;;
74967;SDS011;63523;51.880;12.630;2023-12-20T10:38:46;5.43;;;0.60;;
74967;SDS011;63523;51.880;12.630;2023-12-20T10:41:15;5.28;;;0.73;;
74967;SDS011;63523;51.880;12.630;2023-12-20T10:43:44;8.45;;;1.20;;
74967;SDS011;63523;51.880;12.630;2023-12-20T10:46:10;7.75;;;0.77;;
74967;SDS011;63523;51.880;12.630;2023-12-20T10:48:36;6.20;;;0.80;;
74967;SDS011;63523;51.880;12.630;2023-12-20T10:51:03;9.70;;;1.45;;
74967;SDS011;63523;51.880;12.630;2023-12-20T10:53:30;7.22;;;0.75;;
74967;SDS011;63523;51.880;12.630;2023-12-20T10:55:56;6.67;;;0.40;;
74967;SDS011;63523;51.880;12.630;2023-12-20T10:58:25;2.83;;;0.50;;
74967;SDS011;63523;51.880;12.630;2023-12-20T11:00:54;6.07;;;0.88;;
74967;SDS011;63523;51.880;12.630;2023-12-20T11:03:25;7.30;;;0.52;;
74967;SDS011;63523;51.880;12.630;2023-12-20T11:06:02;3.70;;;0.80;;
74967;SDS011;63523;51.880;12.630;2023-12-20T11:11:25;4.07;;;0.70;;
74967;SDS011;63523;51.880;12.630;2023-12-20T11:14:00;4.80;;;0.60;;
74967;SDS011;63523;51.880;12.630;2023-12-20T11:16:30;5.50;;;0.65;;
74967;SDS011;63523;51.880;12.630;2023-12-20T11:18:57;6.20;;;1.03;;
74967;SDS011;63523;51.880;12.630;2023-12-20T11:21:22;5.83;;;0.70;;
74967;SDS011;63523;51.880;12.630;2023-12-20T11:23:47;5.67;;;0.80;;
74967;SDS011;63523;51.880;12.630;2023-12-20T11:26:15;6.93;;;0.90;;
74967;SDS011;63523;51.880;12.630;2023-12-20T11:28:42;7.78;;;0.88;;
74967;SDS011;63523;51.880;12.630;2023-12-20T11:31:07;4.90;;;0.80;;
74967;SDS011;63523;51.880;12.630;2023-12-20T11:33:36;5.13;;;0.90;;
74967;SDS011;63523;51.880;12.630;2023-12-20T11:36:02;4.32;;;0.55;;
74967;SDS011;63523;51.880;12.630;2023-12-20T11:38:37;3.93;;;0.50;;
74967;SDS011;63523;51.880;12.630;2023-12-20T11:41:04;8.02;;;0.80;;
74967;SDS011;63523;51.880;12.630;2023-12-20T11:43:37;3.53;;;0.60;;
74967;SDS011;63523;51.880;12.630;2023-12-20T11:46:04;5.17;;;0.60;;
74967;SDS011;63523;51.880;12.630;2023-12-20T11:48:30;6.72;;;0.90;;
74967;SDS011;63523;51.880;12.630;2023-12-20T11:50:56;5.80;;;0.77;;
74967;SDS011;63523;51.880;12.630;2023-12-20T11:53:22;4.70;;;0.80;;
74967;SDS011;63523;51.880;12.630;2023-12-20T11:55:48;4.17;;;0.87;;
74967;SDS011;63523;51.880;12.630;2023-12-20T11:58:14;7.15;;;0.82;;
74967;SDS011;63523;51.880;12.630;2023-12-20T12:00:41;4.03;;;0.57;;
74967;SDS011;63523;51.880;12.630;2023-12-20T12:03:07;4.80;;;0.82;;
74967;SDS011;63523;51.880;12.630;2023-12-20T12:05:33;4.73;;;0.80;;
74967;SDS011;63523;51.880;12.630;2023-12-20T12:07:58;7.37;;;1.17;;
74967;SDS011;63523;51.880;12.630;2023-12-20T12:10:23;5.53;;;0.93;;
74967;SDS011;63523;51.880;12.630;2023-12-20T12:12:49;5.30;;;0.90;;
74967;SDS011;63523;51.880;12.630;2023-12-20T12:15:14;6.72;;;0.90;;
74967;SDS011;63523;51.880;12.630;2023-12-20T12:17:40;4.30;;;0.70;;
74967;SDS011;63523;51.880;12.630;2023-12-20T12:20:06;4.50;;;0.70;;
74967;SDS011;63523;51.880;12.630;2023-12-20T12:22:33;6.05;;;0.80;;
74967;SDS011;63523;51.880;12.630;2023-12-20T12:25:11;5.53;;;0.70;;
74967;SDS011;63523;51.880;12.630;2023-12-20T12:27:39;4.88;;;0.82;;
74967;SDS011;63523;51.880;12.630;2023-12-20T12:30:05;6.38;;;1.45;;
74967;SDS011;63523;51.880;12.630;2023-12-20T12:32:34;4.70;;;0.70;;
74967;SDS011;63523;51.880;12.630;2023-12-20T12:34:59;6.77;;;0.90;;
74967;SDS011;63523;51.880;12.630;2023-12-20T12:37:25;4.80;;;1.13;;
74967;SDS011;63523;51.880;12.630;2023-12-20T12:39:53;5.28;;;0.82;;
74967;SDS011;63523;51.880;12.630;2023-12-20T12:42:18;5.33;;;0.53;;
74967;SDS011;63523;51.880;12.630;2023-12-20T12:44:44;8.07;;;1.27;;
74967;SDS011;63523;51.880;12.630;2023-12-20T12:47:09;6.87;;;1.07;;
74967;SDS011;63523;51.880;12.630;2023-12-20T12:49:34;5.57;;;0.70;;
74967;SDS011;63523;51.880;12.630;2023-12-20T12:52:00;5.63;;;1.03;;
74967;SDS011;63523;51.880;12.630;2023-12-20T12:54:25;5.03;;;0.97;;
74967;SDS011;63523;51.880;12.630;2023-12-20T12:56:50;6.97;;;0.60;;
74967;SDS011;63523;51.880;12.630;2023-12-20T12:59:18;4.43;;;0.40;;
74967;SDS011;63523;51.880;12.630;2023-12-20T13:01:44;5.83;;;0.67;;
74967;SDS011;63523;51.880;12.630;2023-12-20T13:04:09;4.40;;;0.50;;
74967;SDS011;63523;51.880;12.630;2023-12-20T13:06:38;5.07;;;0.50;;
74967;SDS011;63523;51.880;12.630;2023-12-20T13:09:05;3.38;;;0.55;;
74967;SDS011;63523;51.880;12.630;2023-12-20T13:11:31;5.63;;;0.60;;
74967;SDS011;63523;51.880;12.630;2023-12-20T13:13:57;3.70;;;0.53;;
74967;SDS011;63523;51.880;12.630;2023-12-20T13:16:22;4.07;;;0.40;;
74967;SDS011;63523;51.880;12.630;2023-12-20T13:18:49;4.35;;;0.50;;
74967;SDS011;63523;51.880;12.630;2023-12-20T13:21:14;5.40;;;0.53;;
74967;SDS011;63523;51.880;12.630;2023-12-20T13:23:39;4.83;;;0.43;;
74967;SDS011;63523;51.880;12.630;2023-12-20T13:26:04;3.93;;;0.43;;
74967;SDS011;63523;51.880;12.630;2023-12-20T13:28:30;5.20;;;0.40;;
74967;SDS011;63523;51.880;12.630;2023-12-20T13:30:56;5.20;;;0.33;;
74967;SDS011;63523;51.880;12.630;2023-12-20T13:33:21;5.97;;;0.50;;
74967;SDS011;63523;51.880;12.630;2023-12-20T13:35:46;3.87;;;0.40;;
74967;SDS011;63523;51.880;12.630;2023-12-20T13:38:12;2.03;;;0.23;;
74967;SDS011;63523;51.880;12.630;2023-12-20T13:40:38;2.60;;;0.30;;
74967;SDS011;63523;51.880;12.630;2023-12-20T13:43:03;3.13;;;0.40;;
74967;SDS011;63523;51.880;12.630;2023-12-20T13:45:29;4.43;;;0.47;;
74967;SDS011;63523;51.880;12.630;2023-12-20T13:47:54;3.97;;;0.60;;
74967;SDS011;63523;51.880;12.630;2023-12-20T13:50:19;4.53;;;0.30;;
74967;SDS011;63523;51.880;12.630;2023-12-20T13:52:45;4.27;;;0.40;;
74967;SDS011;63523;51.880;12.630;2023-12-20T13:55:11;3.08;;;0.28;;
74967;SDS011;63523;51.880;12.630;2023-12-20T13:57:36;4.17;;;0.40;;
74967;SDS011;63523;51.880;12.630;2023-12-20T14:00:06;3.45;;;0.30;;
74967;SDS011;63523;51.880;12.630;2023-12-20T14:02:38;2.63;;;0.20;;
74967;SDS011;63523;51.880;12.630;2023-12-20T14:05:03;2.20;;;0.20;;
74967;SDS011;63523;51.880;12.630;2023-12-20T14:07:29;2.15;;;0.13;;
74967;SDS011;63523;51.880;12.630;2023-12-20T14:09:54;5.47;;;0.70;;
74967;SDS011;63523;51.880;12.630;2023-12-20T14:12:19;4.93;;;0.40;;
74967;SDS011;63523;51.880;12.630;2023-12-20T14:14:45;5.47;;;0.40;;
74967;SDS011;63523;51.880;12.630;2023-12-20T14:17:10;1.93;;;0.20;;
74967;SDS011;63523;51.880;12.630;2023-12-20T14:19:36;5.45;;;0.68;;
74967;SDS011;63523;51.880;12.630;2023-12-20T14:22:01;3.87;;;0.37;;
74967;SDS011;63523;51.880;12.630;2023-12-20T14:24:28;4.05;;;0.38;;
74967;SDS011;63523;51.880;12.630;2023-12-20T14:26:53;10.07;;;1.70;;
74967;SDS011;63523;51.880;12.630;2023-12-20T14:29:19;21.37;;;4.40;;
74967;SDS011;63523;51.880;12.630;2023-12-20T14:31:44;19.40;;;2.70;;
74967;SDS011;63523;51.880;12.630;2023-12-20T14:34:10;15.07;;;2.40;;
74967;SDS011;63523;51.880;12.630;2023-12-20T14:36:35;20.40;;;3.23;;
74967;SDS011;63523;51.880;12.630;2023-12-20T14:39:00;10.87;;;1.50;;
74967;SDS011;63523;51.880;12.630;2023-12-20T14:41:27;12.82;;;3.08;;